Time;durP1;ratioP1;P1;durP2;ratioP2;P2;SDS_P1;SDS_P2;PMS_P1;PMS_P2;Temp;Humidity;BMP_temperature;BMP_pressure;BME280_temperature;BME280_humidity;BME280_pressure;Samples;Min_cycle;Max_cycle;Signal;HPM_P1;HPM_P2
2021/11/21 00:04:38;;;;;;;18.90;12.60;;;;;;;8.17;81.59;98506.89;214960;1321;22578;-76
2021/11/21 00:09:40;;;;;;;15.10;11.10;;;;;;;8.16;81.82;98502.85;214837;1320;22600;-76
2021/11/21 00:14:43;;;;;;;19.20;11.50;;;;;;;8.12;81.69;98493.91;214924;1320;25230;-76
2021/11/21 00:19:59;;;;;;;15.20;11.40;;;;;;;8.07;81.44;98486.39;214737;1322;25561;-76
2021/11/21 00:25:16;;;;;;;18.70;12.00;;;;;;;7.91;81.29;98479.84;214858;1316;24022;-75
2021/11/21 00:30:19;;;;;;;18.50;11.60;;;;;;;7.69;81.51;98468.02;214388;1316;23252;-76
2021/11/21 00:35:22;;;;;;;15.90;11.80;;;;;;;7.49;81.50;98462.06;214994;1322;24208;-76
2021/11/21 00:40:25;;;;;;;17.80;11.30;;;;;;;7.28;81.85;98459.14;215096;1316;22926;-76
2021/11/21 00:45:28;;;;;;;16.70;11.20;;;;;;;7.12;81.99;98452.50;214725;1320;24336;-76
2021/11/21 00:50:32;;;;;;;14.10;10.20;;;;;;;6.95;82.58;98456.40;215018;1316;22595;-76
2021/11/21 00:55:40;;;;;;;16.70;10.90;;;;;;;6.87;83.09;98449.09;214995;1316;22655;-76
2021/11/21 01:00:44;;;;;;;16.80;11.70;;;;;;;6.79;83.20;98445.06;214872;1318;25964;-76
2021/11/21 01:05:49;;;;;;;20.50;12.20;;;;;;;6.75;83.25;98447.26;214845;1320;23798;-76
2021/11/21 01:10:58;;;;;;;16.80;11.50;;;;;;;6.71;83.68;98443.55;214926;1322;25364;-76
2021/11/21 01:16:00;;;;;;;18.60;11.70;;;;;;;6.67;83.79;98435.52;214627;1324;25349;-76
2021/11/21 01:21:04;;;;;;;17.20;11.70;;;;;;;6.63;83.71;98428.70;214508;1323;22726;-76
2021/11/21 01:26:07;;;;;;;19.30;12.50;;;;;;;6.56;83.95;98418.23;215031;1320;24039;-76
2021/11/21 01:31:09;;;;;;;16.80;12.00;;;;;;;6.47;84.18;98408.73;214748;1319;22625;-76
2021/11/21 01:36:11;;;;;;;18.70;12.40;;;;;;;6.47;84.32;98407.98;215053;1320;24346;-76
2021/11/21 01:41:13;;;;;;;17.60;12.60;;;;;;;6.56;84.87;98407.48;215057;1315;24180;-76
2021/11/21 01:46:15;;;;;;;20.30;12.70;;;;;;;6.68;84.76;98401.96;214625;1323;25240;-76
2021/11/21 01:51:18;;;;;;;18.80;12.80;;;;;;;6.76;84.63;98388.47;214692;1322;22748;-76
2021/11/21 01:56:30;;;;;;;18.40;12.50;;;;;;;6.79;84.94;98377.54;214846;1320;24442;-76
2021/11/21 02:01:32;;;;;;;20.90;13.80;;;;;;;6.77;84.79;98368.70;214983;1321;23131;-76
2021/11/21 02:06:34;;;;;;;20.80;13.70;;;;;;;6.73;84.57;98358.18;214510;1324;25362;-76
2021/11/21 02:11:37;;;;;;;19.10;13.80;;;;;;;6.68;84.42;98346.17;214924;1320;22985;-76
2021/11/21 02:16:39;;;;;;;18.50;12.20;;;;;;;6.63;84.93;98340.81;214867;1320;22733;-76
2021/11/21 02:21:41;;;;;;;17.30;11.40;;;;;;;6.60;84.82;98334.76;214998;1321;24326;-76
2021/11/21 02:26:44;;;;;;;17.30;12.10;;;;;;;6.58;85.01;98327.70;214916;1318;24206;-76
2021/11/21 02:31:46;;;;;;;18.00;11.80;;;;;;;6.56;85.17;98313.97;215216;1322;22629;-76
2021/11/21 02:36:49;;;;;;;19.20;11.60;;;;;;;6.51;84.77;98304.09;214970;1317;24448;-76
2021/11/21 02:41:54;;;;;;;17.60;11.50;;;;;;;6.48;84.72;98295.33;214349;1323;22522;-76
2021/11/21 02:47:17;;;;;;;15.50;11.10;;;;;;;6.43;85.15;98287.09;214632;1322;22784;-76
2021/11/21 02:52:19;;;;;;;13.00;9.70;;;;;;;6.41;85.18;98278.95;214558;1321;22640;-76
2021/11/21 02:57:22;;;;;;;16.70;11.00;;;;;;;6.38;85.29;98271.58;215178;1322;22573;-75
2021/11/21 03:02:25;;;;;;;17.30;10.90;;;;;;;6.33;85.33;98264.67;214986;1323;22863;-76
2021/11/21 03:07:27;;;;;;;15.20;10.10;;;;;;;6.30;85.28;98259.85;214467;1324;24240;-76
2021/11/21 03:12:48;;;;;;;14.00;10.20;;;;;;;6.28;85.41;98259.00;215191;1316;23837;-77
2021/11/21 03:17:51;;;;;;;15.80;10.70;;;;;;;6.26;85.48;98253.76;215069;1321;22686;-76
2021/11/21 03:22:56;;;;;;;14.50;10.30;;;;;;;6.24;85.28;98248.92;214845;1316;23140;-76
2021/11/21 03:27:58;;;;;;;15.30;10.60;;;;;;;6.20;85.27;98243.98;214420;1321;22610;-76
2021/11/21 03:33:06;;;;;;;15.30;10.10;;;;;;;6.17;85.06;98240.17;215033;1320;25313;-77
2021/11/21 03:38:08;;;;;;;14.40;10.00;;;;;;;6.15;85.06;98236.94;214911;1315;22581;-77
2021/11/21 03:43:10;;;;;;;15.60;11.30;;;;;;;6.13;85.36;98232.16;214444;1320;22702;-76
2021/11/21 03:48:12;;;;;;;13.70;9.90;;;;;;;6.10;85.32;98224.89;214644;1322;24151;-77
2021/11/21 03:53:18;;;;;;;13.30;9.00;;;;;;;6.11;85.72;98225.88;214849;1315;24295;-77
2021/11/21 03:58:20;;;;;;;12.70;9.50;;;;;;;6.15;85.65;98216.19;214884;1317;22611;-75
2021/11/21 04:03:22;;;;;;;12.90;9.60;;;;;;;6.19;85.23;98212.81;214621;1322;22566;-76
2021/11/21 04:08:24;;;;;;;12.80;9.60;;;;;;;6.20;85.46;98205.32;214892;1319;22960;-76
2021/11/21 04:13:26;;;;;;;13.20;9.80;;;;;;;6.23;85.35;98189.93;214960;1319;24369;-77
2021/11/21 04:18:28;;;;;;;13.20;9.50;;;;;;;6.25;85.00;98188.10;214778;1322;22665;-76
2021/11/21 04:23:35;;;;;;;15.10;9.90;;;;;;;6.27;85.43;98181.94;214843;1317;25281;-77
2021/11/21 04:28:53;;;;;;;12.90;9.70;;;;;;;6.28;85.27;98176.77;214804;1321;22567;-76
2021/11/21 04:33:55;;;;;;;14.50;9.50;;;;;;;6.27;85.12;98170.54;214739;1322;25315;-76
2021/11/21 04:38:57;;;;;;;13.10;9.70;;;;;;;6.27;84.91;98169.59;214755;1317;25362;-77
2021/11/21 04:44:02;;;;;;;13.30;9.20;;;;;;;6.24;84.99;98162.20;214765;1319;24346;-76
2021/11/21 04:49:04;;;;;;;12.20;9.40;;;;;;;6.22;84.96;98156.74;214919;1319;25397;-76
2021/11/21 04:54:12;;;;;;;13.70;9.60;;;;;;;6.22;84.92;98149.66;214793;1322;22531;-77
2021/11/21 04:59:15;;;;;;;14.30;10.00;;;;;;;6.24;85.35;98144.55;215038;1320;24308;-77
2021/11/21 05:04:18;;;;;;;14.30;9.30;;;;;;;6.27;85.11;98142.08;214960;1322;22500;-76
2021/11/21 05:09:20;;;;;;;12.80;9.20;;;;;;;6.33;84.92;98135.45;214930;1320;171671;-76
2021/11/21 05:14:25;;;;;;;13.40;9.60;;;;;;;6.38;84.89;98129.83;215037;1316;22636;-77
2021/11/21 05:19:40;;;;;;;13.80;10.20;;;;;;;6.43;84.64;98127.82;214976;1321;22530;-76
2021/11/21 05:24:48;;;;;;;12.50;9.10;;;;;;;6.50;84.40;98132.09;214776;1319;22513;-76
2021/11/21 05:29:55;;;;;;;12.70;9.90;;;;;;;6.60;84.31;98133.93;214984;1321;24313;-77
2021/11/21 05:34:57;;;;;;;12.70;9.30;;;;;;;6.67;84.12;98123.43;215080;1315;24222;-77
2021/11/21 05:39:59;;;;;;;16.00;10.00;;;;;;;6.73;83.51;98114.78;214935;1320;25393;-76
2021/11/21 05:45:01;;;;;;;13.50;9.00;;;;;;;6.77;83.31;98116.61;214768;1321;24327;-76
2021/11/21 05:50:06;;;;;;;11.80;8.90;;;;;;;6.80;83.16;98117.27;214950;1315;25765;-76
2021/11/21 05:55:08;;;;;;;9.90;8.00;;;;;;;6.83;83.05;98115.92;215096;1318;24167;-76
2021/11/21 06:00:28;;;;;;;12.50;7.70;;;;;;;6.87;82.85;98117.64;214808;1316;22811;-76
2021/11/21 06:05:44;;;;;;;9.00;7.40;;;;;;;6.89;82.51;98126.40;214865;1316;22623;-76
2021/11/21 06:10:54;;;;;;;8.10;6.70;;;;;;;6.89;82.53;98128.21;214250;1320;23065;-76
2021/11/21 06:16:12;;;;;;;9.50;7.00;;;;;;;6.91;82.16;98128.52;214675;1322;25380;-76
2021/11/21 06:21:14;;;;;;;8.60;6.40;;;;;;;6.91;81.98;98128.70;215172;1316;22681;-76
2021/11/21 06:26:19;;;;;;;7.40;6.20;;;;;;;6.92;82.17;98126.16;214579;1318;23145;-77
2021/11/21 06:31:21;;;;;;;8.60;5.80;;;;;;;6.93;81.97;98121.73;215241;1319;22586;-76
2021/11/21 06:36:23;;;;;;;9.00;6.90;;;;;;;6.91;81.87;98119.52;214973;1316;24311;-76
2021/11/21 06:41:25;;;;;;;6.90;6.10;;;;;;;6.90;81.51;98124.38;214601;1316;22739;-76
2021/11/21 06:46:27;;;;;;;8.70;6.50;;;;;;;6.90;81.52;98121.23;214955;1319;25363;-76
2021/11/21 06:51:44;;;;;;;8.90;6.30;;;;;;;6.91;81.76;98107.01;215126;1322;22681;-77
2021/11/21 06:56:59;;;;;;;9.40;6.60;;;;;;;6.92;81.57;98104.29;214840;1315;22611;-76
2021/11/21 07:02:01;;;;;;;7.60;6.20;;;;;;;6.94;81.42;98095.16;214686;1322;22610;-76
2021/11/21 07:07:09;;;;;;;8.80;6.40;;;;;;;6.96;81.57;98083.80;215179;1316;22658;-76
2021/11/21 07:12:12;;;;;;;8.10;6.40;;;;;;;6.98;81.25;98079.31;215226;1319;22655;-76
2021/11/21 07:17:34;;;;;;;8.30;6.50;;;;;;;7.00;80.90;98080.77;215080;1315;22570;-76
2021/11/21 07:22:38;;;;;;;7.90;6.40;;;;;;;7.02;80.79;98083.25;214071;1324;24236;-75
2021/11/21 07:27:44;;;;;;;8.80;7.10;;;;;;;7.04;80.89;98077.05;214851;1316;25354;-76
2021/11/21 07:32:46;;;;;;;8.00;7.00;;;;;;;7.04;80.46;98074.71;214848;1316;22935;-76
2021/11/21 07:37:49;;;;;;;8.40;7.00;;;;;;;7.06;80.63;98077.16;214545;1316;22776;-77
2021/11/21 07:42:51;;;;;;;9.10;7.40;;;;;;;7.10;80.51;98084.77;215144;1316;24240;-77
2021/11/21 07:47:53;;;;;;;9.00;7.20;;;;;;;7.18;80.45;98086.45;214991;1322;22682;-76
2021/11/21 07:52:55;;;;;;;9.50;6.50;;;;;;;7.21;80.17;98083.13;214635;1325;22743;-76
2021/11/21 07:57:57;;;;;;;8.60;6.90;;;;;;;7.24;79.99;98086.14;215018;1321;23949;-77
2021/11/21 08:03:03;;;;;;;8.50;6.80;;;;;;;7.32;79.81;98081.40;214929;1317;24356;-76
2021/11/21 08:08:06;;;;;;;8.70;5.80;;;;;;;7.40;79.18;98079.70;214812;1316;22778;-76
2021/11/21 08:13:08;;;;;;;8.40;6.70;;;;;;;7.52;78.69;98073.82;214801;1324;24037;-76
2021/11/21 08:18:15;;;;;;;8.20;6.00;;;;;;;7.68;79.04;98071.44;215075;1322;24452;-76
2021/11/21 08:23:17;;;;;;;9.00;6.60;;;;;;;7.84;78.26;98065.64;214902;1316;22666;-76
2021/11/21 08:28:26;;;;;;;9.10;6.30;;;;;;;7.89;76.68;98075.80;214977;1316;22513;-76
2021/11/21 08:33:36;;;;;;;8.90;6.30;;;;;;;7.86;76.95;98077.33;215043;1316;22527;-76
2021/11/21 08:38:38;;;;;;;9.00;6.30;;;;;;;7.87;76.06;98072.69;214778;1322;24307;-76
2021/11/21 08:43:40;;;;;;;9.70;7.20;;;;;;;7.81;75.98;98072.34;214959;1316;25470;-76
2021/11/21 08:48:42;;;;;;;12.40;7.30;;;;;;;7.83;76.55;98070.86;214948;1321;22508;-75
2021/11/21 08:53:46;;;;;;;9.00;6.60;;;;;;;7.95;76.64;98076.85;214791;1316;23840;-75
2021/11/21 08:58:49;;;;;;;8.10;6.60;;;;;;;8.07;76.93;98078.64;214913;1319;23910;-76
2021/11/21 09:03:57;;;;;;;8.00;5.80;;;;;;;8.08;76.00;98080.73;214930;1321;24177;-76
2021/11/21 09:09:00;;;;;;;10.90;7.90;;;;;;;8.03;75.69;98071.88;214899;1322;22694;-76
2021/11/21 09:14:04;;;;;;;9.30;7.20;;;;;;;7.94;75.82;98058.56;215418;1322;23305;-77
2021/11/21 09:19:19;;;;;;;10.10;7.30;;;;;;;7.85;76.02;98060.08;214863;1323;22603;-75
2021/11/21 09:24:41;;;;;;;10.50;7.50;;;;;;;7.83;75.74;98070.13;214705;1321;23292;-76
2021/11/21 09:29:51;;;;;;;10.50;7.50;;;;;;;7.81;75.91;98065.88;214583;1319;24186;-76
2021/11/21 09:35:13;;;;;;;10.20;8.00;;;;;;;7.98;76.14;98063.31;215116;1322;24342;-77
2021/11/21 09:40:16;;;;;;;9.50;7.00;;;;;;;8.13;76.18;98063.52;214705;1316;22937;-77
2021/11/21 09:45:18;;;;;;;8.80;7.20;;;;;;;8.32;75.74;98054.37;215113;1320;22773;-76
2021/11/21 09:50:22;;;;;;;10.80;8.10;;;;;;;8.72;75.63;98033.95;214899;1322;22645;-76
2021/11/21 09:55:37;;;;;;;8.40;6.60;;;;;;;9.04;74.64;98032.79;214946;1317;22617;-77
2021/11/21 10:00:41;;;;;;;7.60;6.00;;;;;;;9.30;74.59;98028.06;214718;1321;22755;-77
2021/11/21 10:06:06;;;;;;;10.70;8.00;;;;;;;9.45;73.14;98024.45;214861;1316;24180;-76
2021/11/21 10:11:08;;;;;;;10.60;7.00;;;;;;;9.46;72.96;98017.02;214897;1322;22792;-76
2021/11/21 10:16:36;;;;;;;10.50;7.40;;;;;;;9.44;72.48;98003.35;214508;1322;22576;-77
2021/11/21 10:22:02;;;;;;;11.80;8.80;;;;;;;9.33;71.91;98002.23;214578;1322;22529;-76
2021/11/21 10:27:16;;;;;;;10.30;6.80;;;;;;;9.38;72.90;97999.80;214876;1320;24241;-76
2021/11/21 10:32:27;;;;;;;9.40;7.70;;;;;;;9.57;72.09;97989.54;214735;1324;25262;-76
2021/11/21 10:37:29;;;;;;;;;;;;;;;9.63;71.86;97988.55;214803;1321;22719;-76
2021/11/21 10:42:41;;;;;;;9.90;6.90;;;;;;;9.63;71.66;97988.20;215127;1316;22735;-77
2021/11/21 10:47:49;;;;;;;9.80;7.50;;;;;;;9.60;71.89;97986.42;215310;1321;24225;-77
2021/11/21 10:52:56;;;;;;;10.80;8.00;;;;;;;9.54;71.68;97977.27;214657;1321;22647;-76
2021/11/21 10:58:15;;;;;;;11.10;8.50;;;;;;;9.54;72.09;97971.59;215201;1316;22642;-76
2021/11/21 11:03:32;;;;;;;10.60;7.00;;;;;;;9.66;72.23;97967.27;215286;1320;23274;-76
2021/11/21 11:08:49;;;;;;;11.20;8.80;;;;;;;9.75;71.45;97958.77;215122;1319;23834;-77
2021/11/21 11:13:51;;;;;;;12.70;8.70;;;;;;;9.73;71.24;97955.45;215255;1320;22593;-77
2021/11/21 11:18:53;;;;;;;12.60;8.00;;;;;;;9.76;71.23;97950.94;215123;1321;22667;-77
2021/11/21 11:23:55;;;;;;;10.70;8.10;;;;;;;9.90;70.79;97944.54;214850;1322;24260;-76
2021/11/21 11:29:02;;;;;;;11.40;8.30;;;;;;;9.91;70.61;97947.73;215307;1320;24264;-75
2021/11/21 11:34:04;;;;;;;11.50;8.70;;;;;;;9.87;70.49;97948.17;214956;1315;25883;-76
2021/11/21 11:39:09;;;;;;;11.60;8.70;;;;;;;9.77;69.82;97948.99;215161;1322;22646;-77
2021/11/21 11:44:52;;;;;;;11.50;9.10;;;;;;;9.58;69.43;97946.02;215166;1320;22890;-76
2021/11/21 11:49:55;;;;;;;8.80;7.20;;;;;;;9.47;69.89;97942.94;214687;1322;22747;-77
2021/11/21 11:55:09;;;;;;;10.60;8.00;;;;;;;9.36;69.47;97946.80;214425;1323;24095;-77
2021/11/21 12:00:32;;;;;;;12.50;8.80;;;;;;;9.29;69.91;97952.77;215084;1322;25394;-77
2021/11/21 12:06:04;;;;;;;12.10;8.60;;;;;;;9.23;69.72;97943.55;214972;1321;23268;-76
2021/11/21 12:11:06;;;;;;;12.00;8.80;;;;;;;9.18;70.52;97936.76;214901;1320;23063;-77
2021/11/21 12:16:16;;;;;;;12.00;8.50;;;;;;;9.21;70.64;97938.20;215099;1322;22569;-76
2021/11/21 12:21:37;;;;;;;11.90;8.30;;;;;;;9.21;70.43;97943.20;215158;1322;22508;-76
2021/11/21 12:26:42;;;;;;;11.50;9.40;;;;;;;9.09;69.81;97939.07;215454;1322;23729;-75
2021/11/21 12:32:25;;;;;;;12.30;9.90;;;;;;;9.00;70.61;97940.95;215248;1320;22601;-76
2021/11/21 12:37:30;;;;;;;13.00;9.10;;;;;;;9.04;71.10;97944.40;214735;1316;24333;-76
2021/11/21 12:42:32;;;;;;;13.30;9.60;;;;;;;9.02;70.92;97947.93;215005;1319;22670;-76
2021/11/21 12:47:46;;;;;;;16.10;10.50;;;;;;;8.93;70.59;97950.82;214715;1320;24274;-77
2021/11/21 12:52:58;;;;;;;12.30;9.20;;;;;;;8.80;70.27;97952.17;215046;1316;24221;-77
2021/11/21 12:58:00;;;;;;;13.70;9.60;;;;;;;8.64;70.82;97955.27;214751;1324;25277;-77
2021/11/21 13:03:05;;;;;;;12.90;10.20;;;;;;;8.61;70.99;97962.95;215404;1316;25402;-76
2021/11/21 13:08:37;;;;;;;12.70;9.50;;;;;;;8.51;70.83;97957.95;215024;1321;146446;-76
2021/11/21 13:13:50;;;;;;;14.10;10.10;;;;;;;8.39;71.03;97958.61;215004;1316;24321;-76
2021/11/21 13:18:54;;;;;;;14.00;10.70;;;;;;;8.37;71.32;97955.52;214891;1316;22615;-76
2021/11/21 13:24:12;;;;;;;12.70;9.50;;;;;;;8.31;71.24;97961.05;214884;1320;22673;-76
2021/11/21 13:29:15;;;;;;;15.30;11.00;;;;;;;8.25;71.70;97967.66;214498;1323;22597;-75
2021/11/21 13:34:18;;;;;;;13.90;10.50;;;;;;;8.21;71.71;97971.88;215231;1319;22531;-77
2021/11/21 13:39:29;;;;;;;14.10;10.10;;;;;;;8.16;71.70;97967.91;215158;1321;22740;-78
2021/11/21 13:44:36;;;;;;;14.50;10.10;;;;;;;8.08;71.65;97964.85;214959;1317;24312;-78
2021/11/21 13:49:41;;;;;;;12.60;9.80;;;;;;;8.05;71.91;97961.10;215282;1315;23784;-77
2021/11/21 13:54:46;;;;;;;15.10;11.20;;;;;;;8.02;71.97;97963.18;215180;1316;22744;-77
2021/11/21 13:59:51;;;;;;;13.60;9.20;;;;;;;7.99;71.96;97964.45;215064;1317;24797;-77
2021/11/21 14:05:02;;;;;;;13.30;9.90;;;;;;;7.95;71.96;97960.85;215005;1322;22527;-76
2021/11/21 14:10:08;;;;;;;14.10;9.90;;;;;;;7.90;72.11;97965.45;214786;1321;23363;-78
2021/11/21 14:15:19;;;;;;;14.10;10.00;;;;;;;7.80;72.06;97962.13;215179;1314;22671;-76
2021/11/21 14:20:45;;;;;;;15.10;9.70;;;;;;;7.74;72.44;97963.38;215079;1320;25284;-77
2021/11/21 14:25:57;;;;;;;13.70;9.20;;;;;;;7.70;72.46;97957.73;215049;1319;24269;-77
2021/11/21 14:31:09;;;;;;;14.40;10.40;;;;;;;7.64;72.33;97954.46;215070;1321;22796;-76
2021/11/21 14:36:20;;;;;;;12.90;9.00;;;;;;;7.49;72.30;97957.73;214892;1322;22610;-76
2021/11/21 14:41:22;;;;;;;12.30;9.50;;;;;;;7.37;72.75;97963.36;215082;1321;23162;-76
2021/11/21 14:46:27;;;;;;;15.10;10.80;;;;;;;7.32;72.83;97965.55;214953;1320;25287;-76
2021/11/21 14:51:31;;;;;;;14.30;9.60;;;;;;;7.26;73.05;97975.77;215162;1321;23889;-76
2021/11/21 14:56:33;;;;;;;15.20;10.30;;;;;;;7.23;73.00;97975.31;215590;1319;24241;-77
2021/11/21 15:01:39;;;;;;;16.70;10.60;;;;;;;7.22;72.99;97976.88;215088;1316;24473;-77
2021/11/21 15:06:41;;;;;;;15.00;9.60;;;;;;;7.18;72.93;97977.94;215184;1320;26057;-76
2021/11/21 15:11:44;;;;;;;14.10;10.10;;;;;;;7.12;73.16;97980.02;215130;1322;22796;-77
2021/11/21 15:16:50;;;;;;;16.00;10.60;;;;;;;7.10;73.03;97981.71;215078;1321;22861;-77
2021/11/21 15:21:53;;;;;;;15.50;9.40;;;;;;;7.09;73.53;97982.52;214503;1323;22503;-78
2021/11/21 15:26:54;;;;;;;14.40;9.80;;;;;;;7.12;73.45;97985.25;215169;1317;22735;-76
2021/11/21 15:31:56;;;;;;;14.30;10.20;;;;;;;7.14;73.59;97986.89;214885;1316;25404;-77
2021/11/21 15:37:00;;;;;;;17.10;11.40;;;;;;;7.14;73.53;97989.22;214856;1316;22608;-77
2021/11/21 15:42:03;;;;;;;17.20;10.70;;;;;;;7.20;73.37;97994.11;215076;1318;22523;-77
2021/11/21 15:47:13;;;;;;;17.70;10.50;;;;;;;7.22;73.42;97995.90;214859;1320;25925;-76
2021/11/21 15:52:15;;;;;;;19.10;12.00;;;;;;;7.23;73.51;97997.05;214946;1321;23119;-76
2021/11/21 15:57:17;;;;;;;20.60;11.40;;;;;;;7.25;73.55;97997.15;215374;1319;23996;-76
2021/11/21 16:02:19;;;;;;;19.30;11.60;;;;;;;7.20;73.51;98001.14;215419;1321;22639;-76
2021/11/21 16:07:21;;;;;;;19.50;12.80;;;;;;;7.17;73.45;98011.35;214985;1319;25098;-76
2021/11/21 16:12:23;;;;;;;17.90;11.20;;;;;;;7.15;73.76;98012.60;215082;1319;22830;-76
2021/11/21 16:17:25;;;;;;;19.70;12.10;;;;;;;7.13;73.49;98007.67;215015;1322;22562;-76
2021/11/21 16:22:28;;;;;;;17.60;11.50;;;;;;;7.12;73.70;98009.02;215078;1320;25329;-77
2021/11/21 16:27:30;;;;;;;16.70;11.20;;;;;;;7.17;73.99;98006.44;214913;1320;22644;-77
2021/11/21 16:32:32;;;;;;;16.60;10.70;;;;;;;7.25;74.21;98013.45;215011;1320;22584;-77
2021/11/21 16:37:35;;;;;;;19.60;11.30;;;;;;;7.27;74.25;98020.66;214983;1322;23046;-77
2021/11/21 16:42:39;;;;;;;20.60;12.40;;;;;;;7.26;74.09;98027.55;214690;1316;24427;-77
2021/11/21 16:47:42;;;;;;;18.80;11.10;;;;;;;7.27;74.01;98027.27;215177;1318;23839;-76
2021/11/21 16:52:46;;;;;;;19.30;11.30;;;;;;;7.27;74.06;98027.52;215014;1320;22754;-77
2021/11/21 16:57:48;;;;;;;16.90;10.90;;;;;;;7.26;73.80;98035.96;215303;1319;23358;-76
2021/11/21 17:02:50;;;;;;;18.40;11.80;;;;;;;7.22;74.12;98037.83;215242;1321;24299;-76
2021/11/21 17:07:52;;;;;;;20.30;12.20;;;;;;;7.14;74.09;98040.00;214781;1318;22719;-77
2021/11/21 17:12:55;;;;;;;18.20;11.40;;;;;;;7.09;74.24;98047.98;214929;1321;22620;-77
2021/11/21 17:17:57;;;;;;;16.60;10.40;;;;;;;7.06;74.26;98052.77;215066;1322;22647;-77
2021/11/21 17:22:58;;;;;;;14.30;9.70;;;;;;;7.02;74.56;98051.05;215063;1320;22689;-77
2021/11/21 17:28:00;;;;;;;14.70;9.00;;;;;;;6.99;74.84;98056.18;215145;1321;22524;-77
2021/11/21 17:33:06;;;;;;;15.80;10.30;;;;;;;6.93;74.55;98059.17;215089;1320;22628;-76
2021/11/21 17:38:08;;;;;;;13.40;9.20;;;;;;;6.90;75.09;98068.09;215109;1316;22776;-77
2021/11/21 17:43:10;;;;;;;16.00;8.30;;;;;;;6.91;75.14;98079.54;215079;1322;24118;-77
2021/11/21 17:48:12;;;;;;;14.90;9.40;;;;;;;6.87;75.33;98084.84;214968;1322;23814;-76
2021/11/21 17:53:14;;;;;;;14.00;9.10;;;;;;;6.81;75.39;98089.73;215143;1320;22747;-77
2021/11/21 17:58:17;;;;;;;16.00;9.40;;;;;;;6.78;75.37;98099.19;214970;1320;22539;-77
2021/11/21 18:03:19;;;;;;;15.10;9.70;;;;;;;6.75;75.49;98101.88;214869;1319;22582;-76
2021/11/21 18:08:22;;;;;;;15.60;9.20;;;;;;;6.73;75.89;98101.95;215133;1316;22607;-76
2021/11/21 18:13:24;;;;;;;16.10;10.50;;;;;;;6.68;76.03;98104.06;214948;1316;22710;-76
2021/11/21 18:18:26;;;;;;;15.60;10.10;;;;;;;6.66;76.25;98101.95;214753;1320;22600;-76
2021/11/21 18:23:28;;;;;;;16.10;10.70;;;;;;;6.62;76.14;98107.20;215028;1320;22524;-75
2021/11/21 18:28:30;;;;;;;16.10;9.90;;;;;;;6.58;76.46;98108.09;215034;1316;24424;-76
2021/11/21 18:33:32;;;;;;;16.40;11.00;;;;;;;6.60;76.72;98107.42;215034;1317;24246;-76
2021/11/21 18:38:35;;;;;;;17.50;11.10;;;;;;;6.65;76.95;98102.27;214935;1317;23843;-77
2021/11/21 18:43:37;;;;;;;16.20;12.20;;;;;;;6.72;76.91;98099.30;214936;1316;22865;-76
2021/11/21 18:48:39;;;;;;;24.10;14.70;;;;;;;6.78;77.07;98100.52;215194;1316;22659;-77
2021/11/21 18:53:42;;;;;;;18.60;13.30;;;;;;;6.80;77.49;98110.30;215022;1321;22581;-77
2021/11/21 18:58:50;;;;;;;20.10;12.30;;;;;;;6.77;77.04;98111.76;215391;1315;22618;-77
2021/11/21 19:03:56;;;;;;;22.50;13.90;;;;;;;6.77;77.04;98115.97;215058;1316;24232;-77
2021/11/21 19:08:58;;;;;;;24.30;15.80;;;;;;;6.81;77.03;98124.55;215035;1319;22542;-76
2021/11/21 19:14:00;;;;;;;15.90;11.60;;;;;;;6.85;76.91;98123.67;215037;1313;22809;-76
2021/11/21 19:19:04;;;;;;;16.10;11.10;;;;;;;6.79;77.07;98126.97;215060;1319;22747;-76
2021/11/21 19:24:08;;;;;;;16.80;11.10;;;;;;;6.69;76.85;98129.39;215179;1316;23855;-76
2021/11/21 19:29:10;;;;;;;18.10;12.80;;;;;;;6.65;77.12;98137.30;215239;1319;23824;-76
2021/11/21 19:34:16;;;;;;;16.90;12.60;;;;;;;6.67;77.63;98140.27;215340;1316;25417;-77
2021/11/21 19:39:18;;;;;;;15.80;10.60;;;;;;;6.71;77.73;98139.61;215175;1321;24333;-76
2021/11/21 19:44:23;;;;;;;19.00;12.30;;;;;;;6.70;77.71;98148.45;215272;1321;22835;-77
2021/11/21 19:49:26;;;;;;;16.50;11.60;;;;;;;6.68;77.45;98153.67;215278;1320;22603;-77
2021/11/21 19:54:29;;;;;;;20.80;14.20;;;;;;;6.70;77.57;98159.83;215245;1316;22645;-77
2021/11/21 19:59:31;;;;;;;25.20;15.40;;;;;;;6.72;77.46;98163.59;215293;1316;25908;-77
2021/11/21 20:04:33;;;;;;;32.20;19.80;;;;;;;6.72;77.69;98168.77;215154;1316;25959;-76
2021/11/21 20:09:35;;;;;;;28.80;17.40;;;;;;;6.71;77.76;98170.70;215236;1317;22580;-76
2021/11/21 20:14:37;;;;;;;28.60;17.80;;;;;;;6.71;77.59;98176.48;214969;1319;25335;-78
2021/11/21 20:19:40;;;;;;;26.20;17.20;;;;;;;6.74;77.86;98178.01;215357;1321;24343;-77
2021/11/21 20:24:55;;;;;;;24.60;16.90;;;;;;;6.71;77.52;98178.63;215458;1318;22567;-77
2021/11/21 20:30:11;;;;;;;27.40;17.60;;;;;;;6.70;77.97;98179.20;215398;1320;22665;-77
2021/11/21 20:35:13;;;;;;;23.90;15.30;;;;;;;6.72;77.95;98184.05;215334;1319;22576;-77
2021/11/21 20:40:16;;;;;;;29.20;17.80;;;;;;;6.73;78.04;98190.53;214973;1321;23815;-76
2021/11/21 20:45:19;;;;;;;26.60;17.70;;;;;;;6.74;77.80;98193.61;214979;1320;22546;-76
2021/11/21 20:50:21;;;;;;;26.60;17.80;;;;;;;6.75;78.06;98200.31;214999;1321;24327;-77
2021/11/21 20:55:24;;;;;;;26.80;17.70;;;;;;;6.72;77.93;98200.70;214723;1319;22726;-76
2021/11/21 21:00:27;;;;;;;28.70;17.40;;;;;;;6.71;77.96;98209.45;215104;1316;23724;-76
2021/11/21 21:05:33;;;;;;;30.10;17.70;;;;;;;6.70;77.81;98213.97;215041;1320;22530;-75
2021/11/21 21:10:35;;;;;;;28.50;17.90;;;;;;;6.72;77.76;98225.52;214818;1319;237308;-76
2021/11/21 21:15:37;;;;;;;29.40;17.90;;;;;;;6.69;77.89;98228.95;214813;1322;23022;-77
2021/11/21 21:20:39;;;;;;;32.00;19.20;;;;;;;6.69;78.39;98223.93;215136;1321;25220;-76
2021/11/21 21:25:41;;;;;;;36.00;20.60;;;;;;;6.71;78.19;98222.60;215107;1316;22608;-76
2021/11/21 21:30:43;;;;;;;32.80;19.00;;;;;;;6.66;77.85;98230.61;215173;1318;22553;-77
2021/11/21 21:35:50;;;;;;;35.30;20.20;;;;;;;6.64;77.78;98233.66;214906;1320;22873;-75
2021/11/21 21:40:52;;;;;;;33.60;21.10;;;;;;;6.63;77.79;98234.46;214739;1320;25408;-76
2021/11/21 21:45:55;;;;;;;31.00;19.90;;;;;;;6.60;77.96;98233.52;215245;1316;24281;-76
2021/11/21 21:50:58;;;;;;;28.30;17.30;;;;;;;6.60;78.11;98229.41;215151;1322;22612;-76
2021/11/21 21:56:00;;;;;;;28.70;17.00;;;;;;;6.57;78.09;98232.05;215190;1321;22622;-75
2021/11/21 22:01:04;;;;;;;28.00;17.30;;;;;;;6.59;77.88;98229.16;215051;1320;24269;-76
2021/11/21 22:06:07;;;;;;;29.00;19.20;;;;;;;6.54;78.09;98222.11;214978;1321;22799;-76
2021/11/21 22:11:11;;;;;;;28.00;18.30;;;;;;;6.48;77.86;98221.45;214821;1320;24350;-76
2021/11/21 22:16:14;;;;;;;32.60;20.60;;;;;;;6.37;77.73;98220.45;215034;1321;22594;-76
2021/11/21 22:21:29;;;;;;;33.60;19.00;;;;;;;6.22;77.98;98216.85;215128;1317;25393;-76
2021/11/21 22:26:51;;;;;;;34.40;19.60;;;;;;;6.12;77.89;98218.59;214643;1322;24465;-76
2021/11/21 22:32:07;;;;;;;33.60;20.20;;;;;;;6.05;77.97;98217.98;215032;1322;22684;-76
2021/11/21 22:37:10;;;;;;;37.20;21.80;;;;;;;5.99;78.49;98221.66;214902;1322;23778;-76
2021/11/21 22:42:12;;;;;;;36.50;20.60;;;;;;;5.92;78.26;98223.52;215119;1322;22707;-75
2021/11/21 22:47:14;;;;;;;33.00;20.90;;;;;;;5.84;78.32;98234.71;215019;1316;22968;-75
2021/11/21 22:52:16;;;;;;;32.60;20.50;;;;;;;5.80;78.73;98231.60;214685;1321;25452;-76
2021/11/21 22:57:19;;;;;;;32.70;19.90;;;;;;;5.73;78.57;98241.34;214991;1319;23748;-76
2021/11/21 23:02:21;;;;;;;39.50;21.30;;;;;;;5.61;78.71;98246.73;214824;1320;22944;-76
2021/11/21 23:07:24;;;;;;;40.20;21.50;;;;;;;5.49;78.65;98242.91;214682;1319;22595;-75
2021/11/21 23:12:28;;;;;;;36.70;22.10;;;;;;;5.43;78.86;98248.02;215115;1319;24382;-76
2021/11/21 23:17:31;;;;;;;35.30;21.40;;;;;;;5.36;78.91;98252.66;215111;1313;25357;-78
2021/11/21 23:22:33;;;;;;;36.70;20.90;;;;;;;5.19;78.50;98255.20;215266;1322;23093;-77
2021/11/21 23:27:35;;;;;;;38.50;20.80;;;;;;;5.03;78.74;98257.10;215086;1320;25316;-76
2021/11/21 23:32:52;;;;;;;38.00;23.10;;;;;;;4.83;78.61;98263.72;215096;1316;24332;-76
2021/11/21 23:38:05;;;;;;;38.10;22.60;;;;;;;4.68;78.77;98263.63;214994;1321;25223;-76